createdAt,value
2022-11-10T00:00:30.094Z,66.40
2022-11-10T00:03:23.645Z,66.30
2022-11-10T00:06:17.970Z,67.50
2022-11-10T00:09:12.715Z,66.20
2022-11-10T00:12:10.272Z,65.50
2022-11-10T00:15:20.148Z,68.00
2022-11-10T00:18:17.050Z,66.90
2022-11-10T00:21:14.548Z,61.60
2022-11-10T00:24:08.276Z,58.70
2022-11-10T00:27:02.935Z,52.80
2022-11-10T00:29:56.058Z,57.10
2022-11-10T00:32:52.652Z,37.70
2022-11-10T00:35:49.426Z,63.50
2022-11-10T00:41:34.581Z,63.70
2022-11-10T00:44:32.450Z,56.70
2022-11-10T00:47:26.647Z,60.20
2022-11-10T00:50:21.252Z,59.20
2022-11-10T00:53:15.023Z,58.60
2022-11-10T00:59:01.473Z,53.20
2022-11-10T01:01:58.203Z,54.10
2022-11-10T01:04:51.037Z,61.30
2022-11-10T01:07:45.295Z,53.30
2022-11-10T01:10:40.188Z,53.50
2022-11-10T01:13:35.162Z,48.60
2022-11-10T01:16:29.427Z,53.40
2022-11-10T01:19:30.658Z,52.50
2022-11-10T01:22:27.611Z,51.00
2022-11-10T01:25:21.279Z,50.80
2022-11-10T01:28:29.518Z,54.30
2022-11-10T01:31:29.579Z,54.80
2022-11-10T01:34:22.724Z,56.50
2022-11-10T01:37:16.376Z,57.30
2022-11-10T01:40:14.180Z,57.40
2022-11-10T01:43:15.883Z,52.40
2022-11-10T01:46:11.381Z,47.50
2022-11-10T01:49:06.047Z,53.30
2022-11-10T01:52:06.782Z,57.30
2022-11-10T01:55:01.077Z,50.10
2022-11-10T01:58:10.986Z,53.80
2022-11-10T02:01:06.223Z,49.70
2022-11-10T02:04:02.068Z,53.60
2022-11-10T02:06:57.221Z,51.80
2022-11-10T02:09:50.778Z,54.10
2022-11-10T02:12:43.832Z,61.70
2022-11-10T02:18:28.926Z,48.70
2022-11-10T02:21:23.466Z,54.40
2022-11-10T02:24:17.916Z,56.20
2022-11-10T02:27:14.195Z,56.00
2022-11-10T02:30:10.137Z,54.30
2022-11-10T02:33:04.669Z,53.10
2022-11-10T02:35:58.461Z,56.50
2022-11-10T02:38:51.892Z,56.10
2022-11-10T02:41:44.474Z,50.30
2022-11-10T02:44:38.488Z,49.30
2022-11-10T02:47:34.543Z,52.10
2022-11-10T02:50:28.716Z,58.70
2022-11-10T02:53:22.015Z,51.50
2022-11-10T02:56:17.166Z,58.30
2022-11-10T02:59:10.200Z,55.10
2022-11-10T03:02:03.965Z,53.20
2022-11-10T03:04:57.684Z,51.00
2022-11-10T03:07:57.645Z,52.10
2022-11-10T03:10:50.086Z,49.60
2022-11-10T03:14:00.442Z,48.40
2022-11-10T03:16:54.968Z,50.40
2022-11-10T03:20:01.378Z,40.70
2022-11-10T03:22:56.493Z,49.50
2022-11-10T03:25:50.426Z,50.80
2022-11-10T03:28:56.985Z,49.10
2022-11-10T03:31:51.234Z,50.30
2022-11-10T03:34:47.156Z,53.50
2022-11-10T03:37:43.066Z,12.30
2022-11-10T03:40:50.752Z,47.50
2022-11-10T03:43:50.909Z,44.10
2022-11-10T03:46:51.566Z,55.10
2022-11-10T03:49:44.254Z,44.40
2022-11-10T03:52:37.536Z,44.40
2022-11-10T03:55:31.872Z,42.20
2022-11-10T03:58:26.016Z,49.80
2022-11-10T04:01:18.372Z,47.50
2022-11-10T04:04:32.386Z,46.10
2022-11-10T04:07:42.904Z,52.70
2022-11-10T04:10:39.786Z,35.30
2022-11-10T04:14:01.638Z,49.00
2022-11-10T04:16:57.385Z,55.50
2022-11-10T04:19:50.203Z,51.30
2022-11-10T04:23:01.165Z,51.00
2022-11-10T04:26:08.684Z,50.70
2022-11-10T04:29:04.719Z,51.60
2022-11-10T04:31:58.315Z,53.40
2022-11-10T04:34:51.718Z,54.30
2022-11-10T04:37:46.721Z,57.60
2022-11-10T04:40:40.158Z,62.00
2022-11-10T04:46:55.264Z,62.60
2022-11-10T04:49:49.966Z,52.30
2022-11-10T04:52:44.417Z,56.90
2022-11-10T04:55:41.233Z,53.90
2022-11-10T04:58:36.116Z,58.70
2022-11-10T05:01:34.577Z,54.20
2022-11-10T05:04:28.034Z,54.20
2022-11-10T05:07:20.985Z,57.80
2022-11-10T05:10:14.787Z,59.40
2022-11-10T05:13:09.002Z,66.10
2022-11-10T05:16:07.546Z,57.30
2022-11-10T05:19:01.538Z,58.10
2022-11-10T05:24:51.877Z,53.30
2022-11-10T05:27:44.853Z,68.30
2022-11-10T05:30:39.380Z,61.80
2022-11-10T05:33:32.600Z,57.80
2022-11-10T05:36:28.840Z,56.50
2022-11-10T05:39:21.771Z,63.00
2022-11-10T05:42:15.472Z,56.30
2022-11-10T05:45:12.803Z,53.30
2022-11-10T05:48:07.449Z,60.60
2022-11-10T05:51:01.132Z,64.40
2022-11-10T05:53:53.957Z,59.50
2022-11-10T05:56:49.636Z,61.00
2022-11-10T05:59:42.156Z,62.70
2022-11-10T06:02:36.851Z,58.00
2022-11-10T06:05:31.488Z,52.70
2022-11-10T06:08:24.298Z,64.10
2022-11-10T06:11:21.118Z,65.90
2022-11-10T06:14:14.350Z,66.90
2022-11-10T06:17:08.860Z,65.00
2022-11-10T06:20:02.107Z,62.20
2022-11-10T06:23:07.993Z,35.80
2022-11-10T06:26:03.926Z,68.90
2022-11-10T06:29:10.648Z,58.50
2022-11-10T06:32:04.083Z,65.50
2022-11-10T06:35:02.949Z,64.10
2022-11-10T06:38:07.833Z,59.40
2022-11-10T06:41:10.907Z,67.90
2022-11-10T06:44:17.487Z,57.90
2022-11-10T06:47:12.927Z,59.30
2022-11-10T06:50:16.427Z,63.60
2022-11-10T06:53:10.757Z,66.60
2022-11-10T06:56:03.950Z,68.20
2022-11-10T06:58:59.666Z,66.90
2022-11-10T07:02:21.375Z,60.40
2022-11-10T07:05:42.283Z,66.70
2022-11-10T07:08:55.978Z,66.50
2022-11-10T07:12:15.529Z,45.70
2022-11-10T07:15:10.856Z,71.20
2022-11-10T07:18:06.756Z,65.30
2022-11-10T07:21:01.512Z,71.70
2022-11-10T07:23:59.411Z,62.80
2022-11-10T07:26:54.510Z,54.00
2022-11-10T07:29:47.975Z,67.50
2022-11-10T07:32:43.712Z,74.30
2022-11-10T07:35:46.757Z,70.80
2022-11-10T07:38:39.677Z,76.70
2022-11-10T07:41:36.146Z,68.30
2022-11-10T07:44:32.076Z,70.80
2022-11-10T07:47:29.248Z,71.50
2022-11-10T07:50:26.179Z,70.80
2022-11-10T07:53:22.423Z,67.60
2022-11-10T07:56:20.622Z,67.40
2022-11-10T07:59:22.924Z,70.30
2022-11-10T08:02:17.999Z,71.90
2022-11-10T08:05:12.172Z,70.20
2022-11-10T08:08:06.851Z,66.30
2022-11-10T08:11:01.973Z,77.00
2022-11-10T08:14:04.922Z,75.40
2022-11-10T08:16:58.221Z,77.50
2022-11-10T08:19:51.471Z,65.40
2022-11-10T08:22:45.119Z,73.20
2022-11-10T08:25:41.768Z,68.30
2022-11-10T08:28:43.046Z,69.40
2022-11-10T08:31:55.595Z,75.80
2022-11-10T08:34:51.277Z,77.30
2022-11-10T08:37:46.143Z,63.10
2022-11-10T08:40:41.170Z,68.30
2022-11-10T08:43:39.816Z,72.90
2022-11-10T08:46:33.108Z,70.10
2022-11-10T08:49:27.519Z,70.50
2022-11-10T08:52:22.190Z,72.60
2022-11-10T08:55:21.850Z,71.10
2022-11-10T08:58:16.954Z,72.30
2022-11-10T09:01:14.406Z,70.50
2022-11-10T09:04:08.498Z,76.00
2022-11-10T09:10:06.592Z,67.70
2022-11-10T09:13:03.576Z,64.60
2022-11-10T09:15:59.061Z,68.80
2022-11-10T09:18:52.380Z,63.60
2022-11-10T09:21:46.130Z,64.10
2022-11-10T09:24:41.308Z,55.10
2022-11-10T09:27:39.541Z,67.00
2022-11-10T09:30:35.172Z,33.50
2022-11-10T09:33:29.952Z,63.90
2022-11-10T09:36:25.606Z,64.20
2022-11-10T09:39:21.471Z,58.50
2022-11-10T09:42:30.628Z,64.90
2022-11-10T09:45:29.180Z,58.80
2022-11-10T09:48:27.191Z,53.00
2022-11-10T09:51:26.622Z,63.80
2022-11-10T09:54:33.623Z,62.00
2022-11-10T09:57:32.075Z,57.60
2022-11-10T10:00:26.909Z,56.90
2022-11-10T10:03:26.794Z,55.50
2022-11-10T10:06:23.091Z,46.30
2022-11-10T10:09:31.518Z,60.00
2022-11-10T10:12:38.372Z,53.00
2022-11-10T10:15:39.903Z,56.10
2022-11-10T10:18:42.182Z,53.40
2022-11-10T10:21:53.048Z,56.70
2022-11-10T10:24:46.871Z,50.80
2022-11-10T10:27:44.651Z,53.40
2022-11-10T10:30:37.909Z,47.90
2022-11-10T10:33:32.485Z,54.60
2022-11-10T10:36:30.185Z,53.40
2022-11-10T10:39:30.857Z,55.10
2022-11-10T10:42:33.864Z,58.70
2022-11-10T10:45:31.870Z,54.90
2022-11-10T10:48:32.146Z,58.70
2022-11-10T10:51:35.303Z,54.10
2022-11-10T10:54:32.288Z,50.00
2022-11-10T10:57:30.301Z,51.50
2022-11-10T11:00:26.904Z,52.10
2022-11-10T11:03:42.680Z,43.70
2022-11-10T11:06:38.254Z,46.90
2022-11-10T11:09:43.577Z,54.90
2022-11-10T11:12:38.077Z,48.50
2022-11-10T11:15:34.471Z,43.70
2022-11-10T11:18:30.092Z,45.20
2022-11-10T11:21:35.788Z,36.60
2022-11-10T11:24:36.807Z,35.10
2022-11-10T11:27:39.314Z,36.20
2022-11-10T11:30:41.432Z,39.60
2022-11-10T11:33:40.497Z,29.20
2022-11-10T11:36:46.217Z,30.40
2022-11-10T11:39:51.179Z,32.50
2022-11-10T11:45:56.315Z,33.80
2022-11-10T11:49:07.036Z,34.00
2022-11-10T11:52:11.329Z,37.30
2022-11-10T11:55:18.556Z,36.00
2022-11-10T11:58:27.299Z,34.40
2022-11-10T12:01:38.044Z,42.30
2022-11-10T12:05:01.650Z,36.70
2022-11-10T12:08:04.559Z,35.60
2022-11-10T12:11:06.159Z,45.50
2022-11-10T12:14:07.476Z,34.20
2022-11-10T12:17:13.601Z,32.60
2022-11-10T12:20:28.891Z,34.30
2022-11-10T12:23:35.562Z,35.40
2022-11-10T12:26:41.176Z,31.70
2022-11-10T12:30:04.349Z,33.10
2022-11-10T12:33:04.255Z,28.30
2022-11-10T12:36:00.475Z,29.60
2022-11-10T12:39:03.617Z,32.70
2022-11-10T12:42:07.107Z,33.50
2022-11-10T12:45:23.572Z,33.70
2022-11-10T12:48:21.666Z,38.20
2022-11-10T12:51:23.119Z,25.10
2022-11-10T12:54:20.885Z,35.10
2022-11-10T12:57:19.400Z,31.50
2022-11-10T13:00:30.860Z,35.80
2022-11-10T13:03:37.531Z,29.90
2022-11-10T13:06:33.534Z,34.40
2022-11-10T13:09:33.167Z,29.50
2022-11-10T13:12:28.562Z,33.30
2022-11-10T13:15:55.162Z,31.50
2022-11-10T13:19:07.733Z,30.10
2022-11-10T13:22:14.575Z,30.20
2022-11-10T13:25:41.537Z,25.90
2022-11-10T13:29:22.025Z,29.20
2022-11-10T13:32:31.288Z,30.40
2022-11-10T13:35:55.426Z,28.70
2022-11-10T13:38:49.593Z,25.60
2022-11-10T13:41:51.435Z,30.00
2022-11-10T13:44:58.962Z,25.90
2022-11-10T13:48:00.437Z,28.40
2022-11-10T13:51:12.848Z,22.60
2022-11-10T13:54:29.732Z,28.60
2022-11-10T13:57:38.143Z,23.10
2022-11-10T14:00:35.821Z,27.70
2022-11-10T14:04:01.281Z,25.30
2022-11-10T14:07:01.997Z,24.90
2022-11-10T14:09:58.759Z,21.50
2022-11-10T14:12:55.424Z,22.60
2022-11-10T14:15:49.736Z,21.00
2022-11-10T14:18:51.565Z,20.40
2022-11-10T14:21:56.895Z,19.70
2022-11-10T14:25:01.971Z,19.20
2022-11-10T14:27:58.214Z,20.40
2022-11-10T14:30:59.018Z,20.50
2022-11-10T14:34:01.162Z,20.40
2022-11-10T14:37:01.051Z,19.80
2022-11-10T14:39:57.540Z,25.50
2022-11-10T14:42:52.489Z,22.40
2022-11-10T14:45:55.546Z,22.10
2022-11-10T14:48:57.993Z,17.10
2022-11-10T14:51:52.479Z,19.80
2022-11-10T14:54:51.561Z,24.00
2022-11-10T14:57:49.051Z,21.70
2022-11-10T15:00:47.095Z,20.70
2022-11-10T15:03:42.785Z,24.30
2022-11-10T15:06:44.468Z,25.10
2022-11-10T15:12:32.364Z,22.50
2022-11-10T15:15:42.022Z,25.80
2022-11-10T15:18:40.899Z,24.50
2022-11-10T15:21:37.063Z,24.60
2022-11-10T15:24:31.071Z,25.10
2022-11-10T15:27:31.270Z,23.70
2022-11-10T15:30:38.606Z,30.30
2022-11-10T15:33:34.329Z,28.90
2022-11-10T15:36:37.354Z,6.70
2022-11-10T15:39:38.747Z,32.00
2022-11-10T15:42:37.026Z,34.90
2022-11-10T15:45:41.214Z,30.70
2022-11-10T15:48:42.557Z,32.20
2022-11-10T15:51:37.325Z,34.00
2022-11-10T15:57:25.263Z,33.50
2022-11-10T16:00:23.343Z,35.10
2022-11-10T16:03:18.915Z,35.70
2022-11-10T16:06:16.981Z,32.50
2022-11-10T16:09:14.703Z,9.10
2022-11-10T16:12:09.002Z,32.50
2022-11-10T16:15:03.426Z,35.60
2022-11-10T16:17:59.545Z,39.60
2022-11-10T16:20:53.037Z,40.80
2022-11-10T16:23:56.684Z,40.30
2022-11-10T16:27:01.042Z,41.90
2022-11-10T16:36:29.602Z,44.80
2022-11-10T16:39:26.099Z,55.30
2022-11-10T16:42:19.220Z,56.30
2022-11-10T16:45:37.845Z,51.30
2022-11-10T16:48:35.885Z,53.70
2022-11-10T16:51:35.879Z,47.10
2022-11-10T16:54:30.029Z,49.30
2022-11-10T16:57:28.234Z,44.70
2022-11-10T17:00:23.535Z,18.20
2022-11-10T17:03:15.912Z,51.40
2022-11-10T17:06:15.634Z,49.10
2022-11-10T17:09:15.942Z,44.50
2022-11-10T17:12:18.786Z,47.50
2022-11-10T17:15:15.904Z,46.60
2022-11-10T17:18:13.830Z,41.90
2022-11-10T17:21:21.096Z,44.90
2022-11-10T17:24:24.560Z,46.00
2022-11-10T17:27:22.686Z,46.50
2022-11-10T17:30:26.665Z,45.20
2022-11-10T17:33:35.329Z,54.50
2022-11-10T17:36:46.269Z,77.60
2022-11-10T17:39:43.804Z,66.90
2022-11-10T17:42:40.026Z,50.20
2022-11-10T17:49:29.282Z,56.30
2022-11-10T17:52:23.621Z,51.00
2022-11-10T17:55:28.495Z,50.30
2022-11-10T17:58:25.938Z,50.50
2022-11-10T18:01:23.613Z,45.80
2022-11-10T18:04:17.887Z,48.90
2022-11-10T18:07:12.969Z,48.10
2022-11-10T18:10:12.952Z,50.70
2022-11-10T18:13:07.568Z,49.00
2022-11-10T18:16:06.212Z,49.30
2022-11-10T18:19:01.827Z,45.80
2022-11-10T18:21:58.523Z,55.10
2022-11-10T18:24:54.853Z,51.80
2022-11-10T18:27:49.773Z,50.00
2022-11-10T18:30:52.572Z,50.90
2022-11-10T18:33:47.254Z,47.70
2022-11-10T18:36:42.759Z,51.80
2022-11-10T18:39:45.948Z,50.60
2022-11-10T18:42:41.038Z,48.90
2022-11-10T18:45:51.879Z,51.20
2022-11-10T18:48:46.996Z,49.10
2022-11-10T18:51:41.492Z,51.60
2022-11-10T18:54:35.203Z,49.70
2022-11-10T18:57:30.222Z,46.10
2022-11-10T19:00:24.257Z,55.40
2022-11-10T19:03:24.848Z,45.80
2022-11-10T19:06:20.100Z,51.10
2022-11-10T19:09:16.238Z,47.00
2022-11-10T19:12:36.555Z,51.10
2022-11-10T19:15:59.925Z,44.30
2022-11-10T19:19:04.123Z,46.90
2022-11-10T19:22:25.514Z,46.30
2022-11-10T19:25:38.751Z,42.80
2022-11-10T19:28:37.661Z,45.20
2022-11-10T19:31:37.614Z,42.00
2022-11-10T19:34:38.077Z,40.30
2022-11-10T19:37:42.297Z,40.70
2022-11-10T19:40:40.195Z,38.20
2022-11-10T19:43:37.286Z,39.10
2022-11-10T19:46:37.404Z,45.30
2022-11-10T19:52:38.549Z,42.00
2022-11-10T19:55:37.648Z,44.10
2022-11-10T19:58:36.555Z,42.10
2022-11-10T20:01:32.873Z,41.40
2022-11-10T20:04:26.490Z,48.70
2022-11-10T20:07:45.396Z,46.70
2022-11-10T20:10:39.153Z,45.60
2022-11-10T20:13:33.516Z,54.40
2022-11-10T20:16:27.888Z,48.80
2022-11-10T20:19:21.412Z,48.10
2022-11-10T20:22:25.447Z,46.70
2022-11-10T20:25:19.798Z,48.60
2022-11-10T20:28:15.911Z,43.30
2022-11-10T20:31:21.013Z,46.60
2022-11-10T20:34:13.972Z,50.10
2022-11-10T20:37:11.784Z,50.30
2022-11-10T20:40:30.341Z,49.20
2022-11-10T20:43:37.433Z,49.40
2022-11-10T20:46:53.400Z,49.20
2022-11-10T20:49:48.069Z,54.30
2022-11-10T20:52:41.668Z,53.80
2022-11-10T20:55:52.655Z,52.80
2022-11-10T20:58:48.524Z,55.00
2022-11-10T21:01:40.849Z,53.70
2022-11-10T21:07:26.177Z,52.10
2022-11-10T21:10:20.259Z,50.60
2022-11-10T21:13:14.702Z,46.50
2022-11-10T21:16:33.397Z,45.90
2022-11-10T21:19:26.836Z,42.00
2022-11-10T21:22:19.722Z,41.70
2022-11-10T21:25:17.124Z,41.60
2022-11-10T21:28:15.190Z,43.80
2022-11-10T21:34:22.050Z,47.70
2022-11-10T21:37:17.961Z,45.50
2022-11-10T21:40:17.864Z,43.80
2022-11-10T21:43:21.730Z,44.40
2022-11-10T21:46:31.191Z,44.70
2022-11-10T21:49:24.734Z,42.10
2022-11-10T21:52:18.442Z,40.20
2022-11-10T21:55:13.858Z,41.10
2022-11-10T21:58:07.460Z,46.30
2022-11-10T22:01:08.289Z,48.90
2022-11-10T22:04:07.317Z,44.80
2022-11-10T22:07:18.860Z,46.40
2022-11-10T22:13:40.833Z,40.50
2022-11-10T22:17:03.790Z,42.10
2022-11-10T22:19:57.529Z,47.00
2022-11-10T22:22:51.074Z,44.20
2022-11-10T22:25:43.723Z,46.10
2022-11-10T22:28:38.946Z,45.70
2022-11-10T22:31:43.726Z,47.60
2022-11-10T22:34:37.128Z,44.40
2022-11-10T22:37:33.553Z,46.00
2022-11-10T22:40:44.068Z,49.70
2022-11-10T22:44:03.137Z,48.70
2022-11-10T22:47:00.777Z,46.20
2022-11-10T22:49:54.204Z,48.60
2022-11-10T22:52:52.713Z,47.60
2022-11-10T22:55:46.560Z,50.90
2022-11-10T23:01:34.089Z,43.50
2022-11-10T23:04:28.363Z,44.50
2022-11-10T23:07:21.395Z,45.00
2022-11-10T23:10:15.974Z,45.60
2022-11-10T23:13:10.686Z,42.20
2022-11-10T23:16:07.952Z,43.20
2022-11-10T23:19:03.065Z,43.00
2022-11-10T23:21:56.314Z,41.90
2022-11-10T23:24:52.902Z,36.40
2022-11-10T23:27:48.625Z,36.90
2022-11-10T23:30:43.114Z,44.20
2022-11-10T23:33:36.186Z,42.30
2022-11-10T23:36:30.589Z,44.40
2022-11-10T23:39:23.729Z,47.20
